Agate Beach, Oregon
Current Conditions -  °F | °C
As of 3:55 PM on Friday 28 Nov 2014 (Local Time) from KONP Reporting Station
Haze Haze  
Wind Chill: 13°   Ceiling: 1300
Heat Index: 13°   Visibility: 5mi
Dew Point: 12°   Wind: 22mph
Humidity: 94%   Direction: 220°SW
Pressure: 29.59"   Gusts: 31mph
Location:  44.6805°N, 124.021°W
Report Text: KONP 282355Z AUTO 22019G27KT 5SM BR BKN013 OVC024 13/12 A2959 RMK AO2
Loading
Personal Weather Stations






























Interactive Weather Map New forecast layout! Learn more

10-Day Weather Forecast

Advertisements
Track Severe Weather on mobile